Bookmark and Share
Track history (hours):
 

Safmarine Sanaga

Last reported at 2014-Apr-21 11:22 UTC. Time now 2014-Apr-23 09:12 UTC.
Position N 35°58' W 005°35'.

Length 172 m; draft 9.2 m.

Type: Cargo ship. MMSI: 357573000.

NotesDate/timePositionNaut miles runAvg speedWind from/ knotsBaromVisibWave heightAir tempDewpointWater temp
2014-Apr-21 11:22N 35°58' W 005°35'7 8.5
2014-Apr-21 10:33N 36°00' W 005°28'9 8.8
2014-Apr-21 09:33N 36°09' W 005°25'0 0.4
2014-Apr-21 08:27N 36°09' W 005°25'0 0.0
2014-Apr-21 07:30N 36°09' W 005°25'0 0.1
2014-Apr-21 06:33N 36°09' W 005°25'0 0.0
2014-Apr-21 05:21N 36°09' W 005°25'0 0.0
2014-Apr-21 04:33N 36°09' W 005°25'0 0.0
2014-Apr-21 03:33N 36°09' W 005°25'1 1.4
2014-Apr-21 02:33N 36°08' W 005°26'0 0.2
2014-Apr-21 01:32N 36°08' W 005°26'0 0.0
2014-Apr-21 00:32N 36°08' W 005°26'0 0.0
2014-Apr-20 23:32N 36°08' W 005°26'0 0.0
2014-Apr-20 22:29N 36°08' W 005°26'0 0.0
2014-Apr-20 21:32N 36°08' W 005°26'0 0.0
2014-Apr-20 20:32N 36°08' W 005°26'0 0.0
2014-Apr-20 19:32N 36°08' W 005°26'0 0.0
2014-Apr-20 18:32N 36°08' W 005°26'0 0.0
2014-Apr-20 17:14N 36°08' W 005°26'0 0.0
2014-Apr-20 16:32N 36°08' W 005°26'0 0.0
2014-Apr-20 15:26N 36°08' W 005°26'0 0.0
2014-Apr-20 14:32N 36°08' W 005°26'0 0.0
2014-Apr-20 13:32N 36°08' W 005°26'0 0.0
2014-Apr-20 12:32N 36°08' W 005°26'0 0.0
2014-Apr-20 11:33N 36°08' W 005°26'0 0.0
2014-Apr-20 10:33N 36°08' W 005°26'0 0.0
2014-Apr-20 09:33N 36°08' W 005°26'0 0.0
2014-Apr-20 08:33N 36°08' W 005°26'3 3.2
2014-Apr-20 07:33N 36°07' W 005°22'10 9.6
2014-Apr-20 06:34N 36°07' W 005°11'8 8.0
2014-Apr-20 05:34N 36°07' W 005°01'1 0.5
2014-Apr-20 04:29N 36°07' W 005°01'6 6.4
2014-Apr-20 03:33N 36°03' W 005°07'9 9.3
2014-Apr-20 02:34N 35°59' W 005°17'9 9.0
2014-Apr-20 01:34N 35°56' W 005°28'4 0.7
2014-Apr-19 20:29N 35°53' W 005°30'0 0.0
2014-Apr-19 16:08N 35°53' W 005°30'0 0.0
2014-Apr-19 15:14N 35°53' W 005°30'0 0.0
2014-Apr-19 14:26N 35°53' W 005°30'0 0.0
2014-Apr-19 10:26N 35°53' W 005°30'0 0.0
2014-Apr-19 05:27N 35°53' W 005°30'4 2.1
2014-Apr-19 03:32N 35°54' W 005°35'6 6.3
2014-Apr-19 02:31N 35°54' W 005°43'4 4.4
2014-Apr-19 01:30N 35°54' W 005°48'7 7.4
2014-Apr-19 00:33N 35°54' W 005°57'  

Dump ship's entire track history

sailing weather and tide predictions

Safmarine Sanaga — 3EMH6 — position and weather